createdAt,value
2022-09-16T00:02:04.994Z,14.60
2022-09-16T00:07:06.846Z,14.70
2022-09-16T00:12:08.662Z,14.70
2022-09-16T00:17:10.321Z,14.70
2022-09-16T00:22:12.520Z,14.60
2022-09-16T00:27:14.330Z,14.60
2022-09-16T00:32:15.962Z,14.60
2022-09-16T00:37:17.918Z,14.60
2022-09-16T00:42:19.838Z,14.70
2022-09-16T00:47:46.842Z,14.60
2022-09-16T00:52:50.424Z,14.60
2022-09-16T00:57:54.917Z,14.60
2022-09-16T01:02:56.737Z,14.50
2022-09-16T01:07:58.546Z,14.50
2022-09-16T01:13:04.750Z,14.40
2022-09-16T01:18:52.986Z,14.40
2022-09-16T01:24:04.189Z,14.40
2022-09-16T01:29:14.509Z,14.30
2022-09-16T01:34:41.142Z,14.20
2022-09-16T01:39:48.837Z,14.20
2022-09-16T01:45:16.485Z,14.10
2022-09-16T01:50:25.384Z,14.10
2022-09-16T01:55:47.994Z,14.10
2022-09-16T02:00:53.817Z,14.00
2022-09-16T02:06:20.764Z,14.00
2022-09-16T02:11:23.096Z,14.00
2022-09-16T02:16:35.962Z,13.90
2022-09-16T02:21:44.914Z,13.90
2022-09-16T02:27:00.749Z,13.80
2022-09-16T02:32:05.881Z,13.80
2022-09-16T02:37:22.343Z,13.80
2022-09-16T02:42:24.768Z,13.70
2022-09-16T02:47:52.338Z,13.70
2022-09-16T02:53:12.427Z,13.70
2022-09-16T02:58:14.254Z,13.70
2022-09-16T03:03:16.108Z,13.70
2022-09-16T03:08:17.817Z,13.70
2022-09-16T03:13:50.649Z,13.70
2022-09-16T03:18:55.325Z,13.70
2022-09-16T03:24:23.985Z,13.70
2022-09-16T03:29:33.784Z,13.60
2022-09-16T03:34:42.449Z,13.60
2022-09-16T03:39:53.375Z,13.70
2022-09-16T03:44:55.153Z,13.60
2022-09-16T03:49:56.797Z,13.60
2022-09-16T03:54:58.469Z,13.60
2022-09-16T04:00:00.587Z,13.60
2022-09-16T04:05:02.357Z,13.50
2022-09-16T04:10:06.184Z,13.50
2022-09-16T04:15:08.437Z,13.50
2022-09-16T04:20:10.396Z,13.50
2022-09-16T04:25:12.111Z,13.50
2022-09-16T04:30:14.044Z,13.50
2022-09-16T04:35:19.400Z,13.40
2022-09-16T04:40:21.170Z,13.40
2022-09-16T04:45:22.881Z,13.40
2022-09-16T04:50:25.037Z,13.40
2022-09-16T04:55:28.026Z,13.30
2022-09-16T05:00:29.784Z,13.30
2022-09-16T05:05:31.561Z,13.30
2022-09-16T05:10:33.305Z,13.30
2022-09-16T05:15:35.004Z,13.30
2022-09-16T05:20:38.792Z,13.20
2022-09-16T05:25:40.649Z,13.10
2022-09-16T05:30:42.528Z,13.10
2022-09-16T05:35:45.705Z,13.10
2022-09-16T05:40:47.407Z,13.00
2022-09-16T05:45:53.357Z,13.00
2022-09-16T05:51:06.768Z,13.00
2022-09-16T05:56:11.663Z,13.00
2022-09-16T06:01:18.297Z,13.00
2022-09-16T06:06:26.125Z,13.00
2022-09-16T06:11:28.540Z,13.10
2022-09-16T06:16:33.466Z,13.00
2022-09-16T06:21:35.159Z,13.10
2022-09-16T06:26:42.036Z,13.10
2022-09-16T06:31:43.659Z,13.10
2022-09-16T06:36:46.198Z,13.20
2022-09-16T06:41:47.893Z,13.20
2022-09-16T06:46:49.619Z,13.30
2022-09-16T06:51:51.706Z,13.20
2022-09-16T06:56:53.382Z,13.20
2022-09-16T07:01:55.064Z,13.30
2022-09-16T07:07:09.207Z,13.40
2022-09-16T07:12:14.147Z,13.50
2022-09-16T07:17:17.992Z,13.50
2022-09-16T07:22:19.628Z,13.60
2022-09-16T07:27:21.338Z,13.60
2022-09-16T07:32:23.262Z,13.60
2022-09-16T07:37:24.961Z,13.70
2022-09-16T07:42:29.355Z,13.70
2022-09-16T07:47:31.104Z,13.80
2022-09-16T07:52:32.796Z,13.80
2022-09-16T07:57:34.556Z,13.90
2022-09-16T08:02:36.273Z,14.00
2022-09-16T08:07:38.079Z,14.10
2022-09-16T08:12:39.740Z,14.20
2022-09-16T08:17:41.636Z,14.30
2022-09-16T08:22:43.320Z,14.30
2022-09-16T08:27:45.167Z,14.50
2022-09-16T08:32:46.882Z,14.50
2022-09-16T08:37:52.615Z,14.70
2022-09-16T08:42:58.257Z,14.70
2022-09-16T08:48:22.236Z,14.80
2022-09-16T08:53:42.192Z,14.90
2022-09-16T08:58:47.498Z,14.90
2022-09-16T09:03:49.469Z,14.90
2022-09-16T09:08:56.426Z,15.00
2022-09-16T09:14:18.211Z,15.00
2022-09-16T09:19:38.729Z,15.10
2022-09-16T09:24:57.061Z,15.20
2022-09-16T09:30:20.457Z,15.20
2022-09-16T09:35:34.385Z,15.30
2022-09-16T09:40:44.831Z,15.30
2022-09-16T09:46:04.413Z,15.40
2022-09-16T09:51:15.179Z,15.50
2022-09-16T09:56:28.928Z,15.80
2022-09-16T10:01:30.684Z,15.90
2022-09-16T10:06:35.153Z,15.90
2022-09-16T10:11:45.073Z,15.80
2022-09-16T10:16:51.751Z,15.80
2022-09-16T10:22:18.493Z,15.90
2022-09-16T10:27:27.414Z,16.20
2022-09-16T10:32:29.255Z,16.30
2022-09-16T10:37:31.041Z,16.30
2022-09-16T10:42:34.518Z,16.30
2022-09-16T10:47:36.436Z,16.20
2022-09-16T10:52:43.605Z,16.00
2022-09-16T10:57:46.132Z,16.00
2022-09-16T11:03:06.357Z,15.90
2022-09-16T11:08:20.007Z,16.00
2022-09-16T11:13:41.784Z,16.10
2022-09-16T11:19:03.701Z,16.20
2022-09-16T11:24:43.439Z,16.30
2022-09-16T11:30:08.171Z,16.40
2022-09-16T11:35:29.192Z,16.40
2022-09-16T11:40:46.818Z,16.40
2022-09-16T11:46:07.755Z,16.50
2022-09-16T11:57:15.028Z,16.70
2022-09-16T12:02:21.385Z,16.70
2022-09-16T12:07:48.503Z,16.70
2022-09-16T12:13:22.132Z,16.70
2022-09-16T12:18:33.074Z,16.80
2022-09-16T12:23:41.274Z,16.80
2022-09-16T12:29:05.415Z,17.00
2022-09-16T12:34:16.826Z,17.00
2022-09-16T12:39:18.491Z,17.10
2022-09-16T12:56:08.106Z,15.50
2022-09-16T13:01:18.260Z,15.00
2022-09-16T13:06:29.521Z,14.80
2022-09-16T13:16:57.332Z,14.30
2022-09-16T13:22:12.649Z,14.00
2022-09-16T13:27:38.243Z,13.80
2022-09-16T13:32:43.454Z,13.80
2022-09-16T13:37:46.501Z,13.70
2022-09-16T13:42:48.379Z,13.70
2022-09-16T13:47:51.044Z,13.20
2022-09-16T13:52:53.682Z,13.00
2022-09-16T13:58:04.398Z,12.80
2022-09-16T14:03:20.034Z,12.70
2022-09-16T14:08:59.628Z,12.60
2022-09-16T14:14:15.708Z,12.50
2022-09-16T14:19:36.640Z,12.40
2022-09-16T14:24:40.987Z,12.40
2022-09-16T14:29:56.664Z,12.40
2022-09-16T14:35:03.403Z,12.40
2022-09-16T14:40:17.009Z,12.50
2022-09-16T14:45:19.991Z,12.50
2022-09-16T14:50:39.959Z,12.60
2022-09-16T14:55:49.201Z,12.70
2022-09-16T15:01:15.399Z,12.70
2022-09-16T15:06:28.412Z,12.80
2022-09-16T15:11:50.508Z,12.90
2022-09-16T15:17:04.087Z,13.00
2022-09-16T15:22:09.415Z,13.20
2022-09-16T15:27:11.226Z,13.30
2022-09-16T15:32:22.429Z,13.50
2022-09-16T15:37:32.653Z,13.50
2022-09-16T15:42:34.388Z,13.50
2022-09-16T15:47:45.773Z,13.50
2022-09-16T15:53:12.841Z,13.50
2022-09-16T15:58:19.835Z,13.40
2022-09-16T16:03:21.690Z,13.30
2022-09-16T16:08:44.377Z,13.30
2022-09-16T16:13:46.645Z,13.30
2022-09-16T16:18:48.486Z,13.40
2022-09-16T16:23:50.372Z,13.20
2022-09-16T16:28:52.072Z,13.10
2022-09-16T16:33:54.201Z,12.90
2022-09-16T16:38:55.982Z,12.80
2022-09-16T16:43:58.752Z,12.80
2022-09-16T16:49:00.554Z,12.70
2022-09-16T16:54:02.272Z,12.60
2022-09-16T16:59:03.989Z,12.50
2022-09-16T17:04:06.521Z,12.40
2022-09-16T17:09:13.663Z,12.40
2022-09-16T17:14:17.916Z,12.30
2022-09-16T17:19:19.670Z,12.30
2022-09-16T17:24:21.799Z,12.20
2022-09-16T17:29:23.498Z,12.10
2022-09-16T17:34:26.266Z,12.00
2022-09-16T17:39:28.241Z,12.10
2022-09-16T17:44:29.875Z,12.00
2022-09-16T17:49:32.360Z,12.00
2022-09-16T17:54:34.045Z,11.90
2022-09-16T17:59:35.779Z,11.70
2022-09-16T18:04:37.465Z,11.80
2022-09-16T18:09:39.940Z,11.70
2022-09-16T18:14:41.633Z,11.70
2022-09-16T18:19:43.487Z,11.60
2022-09-16T18:24:45.126Z,11.50
2022-09-16T18:29:48.300Z,11.40
2022-09-16T18:34:50.041Z,11.40
2022-09-16T18:39:51.808Z,11.30
2022-09-16T18:44:53.597Z,11.20
2022-09-16T18:49:55.227Z,11.20
2022-09-16T18:54:57.080Z,11.30
2022-09-16T18:59:58.811Z,11.20
2022-09-16T19:05:01.674Z,11.10
2022-09-16T19:10:03.948Z,11.00
2022-09-16T19:15:06.345Z,11.00
2022-09-16T19:20:08.273Z,11.00
2022-09-16T19:25:13.442Z,10.90
2022-09-16T19:30:15.193Z,10.90
2022-09-16T19:35:19.063Z,10.90
2022-09-16T19:40:20.865Z,10.80
2022-09-16T19:45:27.674Z,10.80
2022-09-16T19:50:30.171Z,10.80
2022-09-16T19:55:31.858Z,10.80
2022-09-16T20:00:54.991Z,10.80
2022-09-16T20:06:07.185Z,10.80
2022-09-16T20:11:17.224Z,10.80
2022-09-16T20:16:20.751Z,10.70
2022-09-16T20:21:25.795Z,10.80
2022-09-16T20:26:27.883Z,10.90
2022-09-16T20:31:33.403Z,10.80
2022-09-16T20:36:38.044Z,10.80
2022-09-16T20:41:40.821Z,10.80
2022-09-16T20:46:43.316Z,10.80
2022-09-16T20:51:45.424Z,10.80
2022-09-16T20:56:48.011Z,10.80
2022-09-16T21:01:49.869Z,10.80
2022-09-16T21:06:51.607Z,10.70
2022-09-16T21:11:53.297Z,10.70
2022-09-16T21:16:55.724Z,10.60
2022-09-16T21:21:57.366Z,10.60
2022-09-16T21:26:59.173Z,10.60
2022-09-16T21:32:00.920Z,10.60
2022-09-16T21:37:05.113Z,10.60
2022-09-16T21:42:06.924Z,10.70
2022-09-16T21:47:11.423Z,10.60
2022-09-16T21:52:13.217Z,10.60
2022-09-16T21:57:15.053Z,10.60
2022-09-16T22:02:16.960Z,10.60
2022-09-16T22:07:18.778Z,10.60
2022-09-16T22:12:20.494Z,10.60
2022-09-16T22:17:22.967Z,10.60
2022-09-16T22:22:24.717Z,10.60
2022-09-16T22:27:29.744Z,10.60
2022-09-16T22:32:31.380Z,10.60
2022-09-16T22:37:33.051Z,10.60
2022-09-16T22:42:34.755Z,10.60
2022-09-16T22:47:37.166Z,10.60
2022-09-16T22:52:38.895Z,10.60
2022-09-16T22:57:40.549Z,10.70
2022-09-16T23:02:42.203Z,10.70
2022-09-16T23:07:43.868Z,10.70
2022-09-16T23:12:45.557Z,10.70
2022-09-16T23:17:47.433Z,10.70
2022-09-16T23:22:49.235Z,10.70
2022-09-16T23:27:51.826Z,10.80
2022-09-16T23:32:53.432Z,10.80
2022-09-16T23:37:57.571Z,10.70
2022-09-16T23:42:59.316Z,10.80
2022-09-16T23:48:01.052Z,10.80
2022-09-16T23:53:02.781Z,10.80
2022-09-16T23:58:04.464Z,10.70
